sensor_id;sensor_type;location;lat;lon;timestamp;temperature;humidity
11838;DHT22;5978;51.020;6.764;2023-06-01T00:01:36;17.60;99.90
11838;DHT22;5978;51.020;6.764;2023-06-01T00:04:03;17.50;99.90
11838;DHT22;5978;51.020;6.764;2023-06-01T00:06:29;17.50;99.90
11838;DHT22;5978;51.020;6.764;2023-06-01T00:08:56;17.50;99.90
11838;DHT22;5978;51.020;6.764;2023-06-01T00:11:22;17.40;99.90
11838;DHT22;5978;51.020;6.764;2023-06-01T00:13:48;17.40;99.90
11838;DHT22;5978;51.020;6.764;2023-06-01T00:16:15;17.30;99.90
11838;DHT22;5978;51.020;6.764;2023-06-01T00:18:41;17.40;99.90
11838;DHT22;5978;51.020;6.764;2023-06-01T00:21:06;17.40;99.90
11838;DHT22;5978;51.020;6.764;2023-06-01T00:23:32;17.40;99.90
11838;DHT22;5978;51.020;6.764;2023-06-01T00:25:59;17.40;99.90
11838;DHT22;5978;51.020;6.764;2023-06-01T00:28:28;17.40;99.90
11838;DHT22;5978;51.020;6.764;2023-06-01T00:30:54;17.40;99.90
11838;DHT22;5978;51.020;6.764;2023-06-01T00:33:20;17.30;99.90
11838;DHT22;5978;51.020;6.764;2023-06-01T00:35:46;17.40;99.90
11838;DHT22;5978;51.020;6.764;2023-06-01T00:38:12;17.40;99.90
11838;DHT22;5978;51.020;6.764;2023-06-01T00:40:37;17.30;99.90
11838;DHT22;5978;51.020;6.764;2023-06-01T00:43:03;17.30;99.90
11838;DHT22;5978;51.020;6.764;2023-06-01T00:45:29;17.20;99.90
11838;DHT22;5978;51.020;6.764;2023-06-01T00:47:55;17.20;99.90
11838;DHT22;5978;51.020;6.764;2023-06-01T00:50:21;17.10;99.90
11838;DHT22;5978;51.020;6.764;2023-06-01T00:52:49;17.10;99.90
11838;DHT22;5978;51.020;6.764;2023-06-01T00:55:15;17.00;99.90
11838;DHT22;5978;51.020;6.764;2023-06-01T00:57:43;16.90;99.90
11838;DHT22;5978;51.020;6.764;2023-06-01T01:00:09;16.90;99.90
11838;DHT22;5978;51.020;6.764;2023-06-01T01:02:39;16.80;99.90
11838;DHT22;5978;51.020;6.764;2023-06-01T01:05:09;16.80;99.90
11838;DHT22;5978;51.020;6.764;2023-06-01T01:08:06;16.80;99.90
11838;DHT22;5978;51.020;6.764;2023-06-01T01:11:07;16.80;99.90
11838;DHT22;5978;51.020;6.764;2023-06-01T01:13:47;16.70;99.90
11838;DHT22;5978;51.020;6.764;2023-06-01T01:16:29;16.70;99.90
11838;DHT22;5978;51.020;6.764;2023-06-01T01:21:49;16.60;99.90
11838;DHT22;5978;51.020;6.764;2023-06-01T01:27:10;16.50;99.90
11838;DHT22;5978;51.020;6.764;2023-06-01T01:29:40;16.50;99.90
11838;DHT22;5978;51.020;6.764;2023-06-01T01:32:08;16.50;99.90
11838;DHT22;5978;51.020;6.764;2023-06-01T01:34:35;16.40;99.90
11838;DHT22;5978;51.020;6.764;2023-06-01T01:37:02;16.40;99.90
11838;DHT22;5978;51.020;6.764;2023-06-01T01:39:27;16.40;99.90
11838;DHT22;5978;51.020;6.764;2023-06-01T01:41:53;16.40;99.90
11838;DHT22;5978;51.020;6.764;2023-06-01T01:44:19;16.40;99.90
11838;DHT22;5978;51.020;6.764;2023-06-01T01:47:07;16.40;99.90
11838;DHT22;5978;51.020;6.764;2023-06-01T01:49:42;16.40;99.90
11838;DHT22;5978;51.020;6.764;2023-06-01T01:52:16;16.30;99.90
11838;DHT22;5978;51.020;6.764;2023-06-01T01:54:44;16.30;99.90
11838;DHT22;5978;51.020;6.764;2023-06-01T01:57:13;16.30;99.90
11838;DHT22;5978;51.020;6.764;2023-06-01T01:59:40;16.20;99.90
11838;DHT22;5978;51.020;6.764;2023-06-01T02:02:07;16.20;99.90
11838;DHT22;5978;51.020;6.764;2023-06-01T02:04:32;16.10;99.90
11838;DHT22;5978;51.020;6.764;2023-06-01T02:07:03;16.00;99.90
11838;DHT22;5978;51.020;6.764;2023-06-01T02:09:29;16.10;99.90
11838;DHT22;5978;51.020;6.764;2023-06-01T02:11:54;16.10;99.90
11838;DHT22;5978;51.020;6.764;2023-06-01T02:14:20;16.00;99.90
11838;DHT22;5978;51.020;6.764;2023-06-01T02:16:46;15.90;99.90
11838;DHT22;5978;51.020;6.764;2023-06-01T02:19:11;15.90;99.90
11838;DHT22;5978;51.020;6.764;2023-06-01T02:21:37;15.90;99.90
11838;DHT22;5978;51.020;6.764;2023-06-01T02:24:03;15.80;99.90
11838;DHT22;5978;51.020;6.764;2023-06-01T02:26:33;15.80;99.90
11838;DHT22;5978;51.020;6.764;2023-06-01T02:28:58;15.70;99.90
11838;DHT22;5978;51.020;6.764;2023-06-01T02:31:24;15.70;99.90
11838;DHT22;5978;51.020;6.764;2023-06-01T02:33:50;15.60;99.90
11838;DHT22;5978;51.020;6.764;2023-06-01T02:36:16;15.60;99.90
11838;DHT22;5978;51.020;6.764;2023-06-01T02:38:42;15.60;99.90
11838;DHT22;5978;51.020;6.764;2023-06-01T02:41:08;15.50;99.90
11838;DHT22;5978;51.020;6.764;2023-06-01T02:43:34;15.50;99.90
11838;DHT22;5978;51.020;6.764;2023-06-01T02:46:03;15.40;99.90
11838;DHT22;5978;51.020;6.764;2023-06-01T02:48:29;15.40;99.90
11838;DHT22;5978;51.020;6.764;2023-06-01T02:50:55;15.40;99.90
11838;DHT22;5978;51.020;6.764;2023-06-01T02:53:20;15.40;99.90
11838;DHT22;5978;51.020;6.764;2023-06-01T02:55:46;15.30;99.90
11838;DHT22;5978;51.020;6.764;2023-06-01T02:58:12;15.30;99.90
11838;DHT22;5978;51.020;6.764;2023-06-01T03:00:42;15.30;99.90
11838;DHT22;5978;51.020;6.764;2023-06-01T03:03:08;15.20;99.90
11838;DHT22;5978;51.020;6.764;2023-06-01T03:05:34;15.20;99.90
11838;DHT22;5978;51.020;6.764;2023-06-01T03:08:01;15.20;99.90
11838;DHT22;5978;51.020;6.764;2023-06-01T03:10:27;15.20;99.90
11838;DHT22;5978;51.020;6.764;2023-06-01T03:12:52;15.20;99.90
11838;DHT22;5978;51.020;6.764;2023-06-01T03:15:18;15.20;99.90
11838;DHT22;5978;51.020;6.764;2023-06-01T03:17:44;15.20;99.90
11838;DHT22;5978;51.020;6.764;2023-06-01T03:20:10;15.10;99.90
11838;DHT22;5978;51.020;6.764;2023-06-01T03:22:44;15.00;99.90
11838;DHT22;5978;51.020;6.764;2023-06-01T03:25:10;15.00;99.90
11838;DHT22;5978;51.020;6.764;2023-06-01T03:27:38;15.00;99.90
11838;DHT22;5978;51.020;6.764;2023-06-01T03:30:04;14.80;99.90
11838;DHT22;5978;51.020;6.764;2023-06-01T03:32:36;14.80;99.90
11838;DHT22;5978;51.020;6.764;2023-06-01T03:35:06;14.80;99.90
11838;DHT22;5978;51.020;6.764;2023-06-01T03:37:39;14.70;99.90
11838;DHT22;5978;51.020;6.764;2023-06-01T03:40:06;14.70;99.90
11838;DHT22;5978;51.020;6.764;2023-06-01T03:42:41;14.70;99.90
11838;DHT22;5978;51.020;6.764;2023-06-01T03:45:07;14.70;99.90
11838;DHT22;5978;51.020;6.764;2023-06-01T03:47:33;14.70;99.90
11838;DHT22;5978;51.020;6.764;2023-06-01T03:49:59;14.70;99.90
11838;DHT22;5978;51.020;6.764;2023-06-01T03:52:29;14.60;99.90
11838;DHT22;5978;51.020;6.764;2023-06-01T03:54:56;14.60;99.90
11838;DHT22;5978;51.020;6.764;2023-06-01T03:57:22;14.60;99.90
11838;DHT22;5978;51.020;6.764;2023-06-01T03:59:48;14.50;99.90
11838;DHT22;5978;51.020;6.764;2023-06-01T04:02:14;14.50;99.90
11838;DHT22;5978;51.020;6.764;2023-06-01T04:04:40;14.50;99.90
11838;DHT22;5978;51.020;6.764;2023-06-01T04:07:13;14.50;99.90
11838;DHT22;5978;51.020;6.764;2023-06-01T04:09:47;14.60;99.90
11838;DHT22;5978;51.020;6.764;2023-06-01T04:12:13;14.60;99.90
11838;DHT22;5978;51.020;6.764;2023-06-01T04:14:40;14.60;99.90
11838;DHT22;5978;51.020;6.764;2023-06-01T04:17:05;14.60;99.90
11838;DHT22;5978;51.020;6.764;2023-06-01T04:19:32;14.60;99.90
11838;DHT22;5978;51.020;6.764;2023-06-01T04:21:59;14.60;99.90
11838;DHT22;5978;51.020;6.764;2023-06-01T04:24:24;14.60;99.90
11838;DHT22;5978;51.020;6.764;2023-06-01T04:26:50;14.70;99.90
11838;DHT22;5978;51.020;6.764;2023-06-01T04:29:16;14.70;99.90
11838;DHT22;5978;51.020;6.764;2023-06-01T04:31:45;14.70;99.90
11838;DHT22;5978;51.020;6.764;2023-06-01T04:34:11;14.70;99.90
11838;DHT22;5978;51.020;6.764;2023-06-01T04:36:37;14.70;99.90
11838;DHT22;5978;51.020;6.764;2023-06-01T04:39:05;14.70;99.90
11838;DHT22;5978;51.020;6.764;2023-06-01T04:41:33;14.70;99.90
11838;DHT22;5978;51.020;6.764;2023-06-01T04:44:01;14.80;99.90
11838;DHT22;5978;51.020;6.764;2023-06-01T04:46:30;14.80;99.90
11838;DHT22;5978;51.020;6.764;2023-06-01T04:48:56;14.80;99.90
11838;DHT22;5978;51.020;6.764;2023-06-01T04:51:23;14.80;99.90
11838;DHT22;5978;51.020;6.764;2023-06-01T04:53:51;14.90;99.90
11838;DHT22;5978;51.020;6.764;2023-06-01T04:56:24;15.00;99.90
11838;DHT22;5978;51.020;6.764;2023-06-01T04:58:54;15.00;99.90
11838;DHT22;5978;51.020;6.764;2023-06-01T05:01:24;15.00;99.90
11838;DHT22;5978;51.020;6.764;2023-06-01T05:03:51;14.90;99.90
11838;DHT22;5978;51.020;6.764;2023-06-01T05:06:19;14.90;99.90
11838;DHT22;5978;51.020;6.764;2023-06-01T05:08:45;14.80;99.90
11838;DHT22;5978;51.020;6.764;2023-06-01T05:11:11;14.80;99.90
11838;DHT22;5978;51.020;6.764;2023-06-01T05:13:40;14.70;99.90
11838;DHT22;5978;51.020;6.764;2023-06-01T05:16:07;14.70;99.90
11838;DHT22;5978;51.020;6.764;2023-06-01T05:18:34;14.70;99.90
11838;DHT22;5978;51.020;6.764;2023-06-01T05:21:00;14.70;99.90
11838;DHT22;5978;51.020;6.764;2023-06-01T05:23:26;14.70;99.90
11838;DHT22;5978;51.020;6.764;2023-06-01T05:25:53;14.70;99.90
11838;DHT22;5978;51.020;6.764;2023-06-01T05:28:20;14.70;99.90
11838;DHT22;5978;51.020;6.764;2023-06-01T05:30:46;14.60;99.90
11838;DHT22;5978;51.020;6.764;2023-06-01T05:33:12;14.60;99.90
11838;DHT22;5978;51.020;6.764;2023-06-01T05:35:38;14.70;99.90
11838;DHT22;5978;51.020;6.764;2023-06-01T05:38:04;14.70;99.90
11838;DHT22;5978;51.020;6.764;2023-06-01T05:40:29;14.70;99.90
11838;DHT22;5978;51.020;6.764;2023-06-01T05:42:55;14.70;99.90
11838;DHT22;5978;51.020;6.764;2023-06-01T05:45:21;14.60;99.90
11838;DHT22;5978;51.020;6.764;2023-06-01T05:47:47;14.60;99.90
11838;DHT22;5978;51.020;6.764;2023-06-01T05:50:12;14.70;99.90
11838;DHT22;5978;51.020;6.764;2023-06-01T05:52:38;14.80;99.90
11838;DHT22;5978;51.020;6.764;2023-06-01T05:55:05;14.90;99.90
11838;DHT22;5978;51.020;6.764;2023-06-01T05:57:31;14.90;99.90
11838;DHT22;5978;51.020;6.764;2023-06-01T05:59:56;14.90;99.90
11838;DHT22;5978;51.020;6.764;2023-06-01T06:02:22;15.10;99.90
11838;DHT22;5978;51.020;6.764;2023-06-01T06:04:48;15.20;99.90
11838;DHT22;5978;51.020;6.764;2023-06-01T06:07:13;15.10;99.90
11838;DHT22;5978;51.020;6.764;2023-06-01T06:09:40;15.10;99.90
11838;DHT22;5978;51.020;6.764;2023-06-01T06:12:06;15.10;99.90
11838;DHT22;5978;51.020;6.764;2023-06-01T06:14:32;15.40;99.90
11838;DHT22;5978;51.020;6.764;2023-06-01T06:16:58;15.60;99.90
11838;DHT22;5978;51.020;6.764;2023-06-01T06:19:23;15.60;99.90
11838;DHT22;5978;51.020;6.764;2023-06-01T06:21:49;15.80;99.90
11838;DHT22;5978;51.020;6.764;2023-06-01T06:24:15;15.70;99.90
11838;DHT22;5978;51.020;6.764;2023-06-01T06:26:41;15.70;99.90
11838;DHT22;5978;51.020;6.764;2023-06-01T06:29:06;15.80;99.90
11838;DHT22;5978;51.020;6.764;2023-06-01T06:31:32;15.80;99.90
11838;DHT22;5978;51.020;6.764;2023-06-01T06:33:58;16.00;99.90
11838;DHT22;5978;51.020;6.764;2023-06-01T06:36:23;16.00;99.90
11838;DHT22;5978;51.020;6.764;2023-06-01T06:38:49;16.20;99.90
11838;DHT22;5978;51.020;6.764;2023-06-01T06:41:15;16.50;99.90
11838;DHT22;5978;51.020;6.764;2023-06-01T06:43:40;16.70;99.90
11838;DHT22;5978;51.020;6.764;2023-06-01T06:46:07;16.80;99.90
11838;DHT22;5978;51.020;6.764;2023-06-01T06:48:33;16.80;99.90
11838;DHT22;5978;51.020;6.764;2023-06-01T06:50:59;16.80;99.90
11838;DHT22;5978;51.020;6.764;2023-06-01T06:53:25;16.80;99.90
11838;DHT22;5978;51.020;6.764;2023-06-01T06:55:50;16.90;99.90
11838;DHT22;5978;51.020;6.764;2023-06-01T06:58:16;16.80;99.90
11838;DHT22;5978;51.020;6.764;2023-06-01T07:00:41;16.70;99.90
11838;DHT22;5978;51.020;6.764;2023-06-01T07:03:07;16.70;99.90
11838;DHT22;5978;51.020;6.764;2023-06-01T07:05:34;16.70;99.90
11838;DHT22;5978;51.020;6.764;2023-06-01T07:08:00;16.70;99.90
11838;DHT22;5978;51.020;6.764;2023-06-01T07:10:26;16.90;99.90
11838;DHT22;5978;51.020;6.764;2023-06-01T07:12:52;16.90;99.90
11838;DHT22;5978;51.020;6.764;2023-06-01T07:15:17;16.90;99.90
11838;DHT22;5978;51.020;6.764;2023-06-01T07:17:43;17.00;99.90
11838;DHT22;5978;51.020;6.764;2023-06-01T07:20:09;16.90;99.90
11838;DHT22;5978;51.020;6.764;2023-06-01T07:22:39;16.70;99.90
11838;DHT22;5978;51.020;6.764;2023-06-01T07:25:05;16.50;99.90
11838;DHT22;5978;51.020;6.764;2023-06-01T07:27:31;16.60;99.90
11838;DHT22;5978;51.020;6.764;2023-06-01T07:30:03;16.50;99.90
11838;DHT22;5978;51.020;6.764;2023-06-01T07:32:29;16.50;99.90
11838;DHT22;5978;51.020;6.764;2023-06-01T07:34:55;16.40;99.90
11838;DHT22;5978;51.020;6.764;2023-06-01T07:37:23;16.50;99.90
11838;DHT22;5978;51.020;6.764;2023-06-01T07:39:49;16.60;99.90
11838;DHT22;5978;51.020;6.764;2023-06-01T07:42:16;16.80;99.90
11838;DHT22;5978;51.020;6.764;2023-06-01T07:44:41;16.90;99.90
11838;DHT22;5978;51.020;6.764;2023-06-01T07:47:07;17.00;99.90
11838;DHT22;5978;51.020;6.764;2023-06-01T07:49:33;16.90;99.90
11838;DHT22;5978;51.020;6.764;2023-06-01T07:52:02;17.00;99.90
11838;DHT22;5978;51.020;6.764;2023-06-01T07:54:28;17.20;99.90
11838;DHT22;5978;51.020;6.764;2023-06-01T07:56:54;17.00;99.90
11838;DHT22;5978;51.020;6.764;2023-06-01T07:59:20;17.20;99.90
11838;DHT22;5978;51.020;6.764;2023-06-01T08:01:48;17.20;99.90
11838;DHT22;5978;51.020;6.764;2023-06-01T08:04:14;17.40;99.90
11838;DHT22;5978;51.020;6.764;2023-06-01T08:06:39;17.30;99.90
11838;DHT22;5978;51.020;6.764;2023-06-01T08:09:07;17.50;99.90
11838;DHT22;5978;51.020;6.764;2023-06-01T08:11:32;17.50;99.90
11838;DHT22;5978;51.020;6.764;2023-06-01T08:13:58;17.60;99.90
11838;DHT22;5978;51.020;6.764;2023-06-01T08:16:30;17.60;99.90
11838;DHT22;5978;51.020;6.764;2023-06-01T08:18:56;17.60;99.90
11838;DHT22;5978;51.020;6.764;2023-06-01T08:21:23;17.90;99.90
11838;DHT22;5978;51.020;6.764;2023-06-01T08:23:51;17.90;99.90
11838;DHT22;5978;51.020;6.764;2023-06-01T08:26:19;18.00;99.90
11838;DHT22;5978;51.020;6.764;2023-06-01T08:28:44;18.10;99.90
11838;DHT22;5978;51.020;6.764;2023-06-01T08:31:20;18.30;99.90
11838;DHT22;5978;51.020;6.764;2023-06-01T08:33:47;18.00;99.90
11838;DHT22;5978;51.020;6.764;2023-06-01T08:36:13;18.00;99.90
11838;DHT22;5978;51.020;6.764;2023-06-01T08:38:39;18.00;99.90
11838;DHT22;5978;51.020;6.764;2023-06-01T08:41:20;18.20;99.90
11838;DHT22;5978;51.020;6.764;2023-06-01T08:43:59;18.20;99.90
11838;DHT22;5978;51.020;6.764;2023-06-01T08:46:27;18.00;99.90
11838;DHT22;5978;51.020;6.764;2023-06-01T08:48:55;18.20;99.90
11838;DHT22;5978;51.020;6.764;2023-06-01T08:51:25;18.60;99.90
11838;DHT22;5978;51.020;6.764;2023-06-01T08:53:52;18.70;99.90
11838;DHT22;5978;51.020;6.764;2023-06-01T08:56:18;18.60;99.90
11838;DHT22;5978;51.020;6.764;2023-06-01T08:58:44;18.90;99.90
11838;DHT22;5978;51.020;6.764;2023-06-01T09:01:16;18.90;99.90
11838;DHT22;5978;51.020;6.764;2023-06-01T09:03:44;18.90;99.90
11838;DHT22;5978;51.020;6.764;2023-06-01T09:06:10;19.10;99.90
11838;DHT22;5978;51.020;6.764;2023-06-01T09:08:36;19.40;99.90
11838;DHT22;5978;51.020;6.764;2023-06-01T09:11:02;19.60;99.90
11838;DHT22;5978;51.020;6.764;2023-06-01T09:13:34;19.80;99.90
11838;DHT22;5978;51.020;6.764;2023-06-01T09:16:00;20.10;99.90
11838;DHT22;5978;51.020;6.764;2023-06-01T09:18:26;20.30;99.90
11838;DHT22;5978;51.020;6.764;2023-06-01T09:20:52;20.10;99.90
11838;DHT22;5978;51.020;6.764;2023-06-01T09:23:26;20.20;99.90
11838;DHT22;5978;51.020;6.764;2023-06-01T09:26:05;20.20;99.90
11838;DHT22;5978;51.020;6.764;2023-06-01T09:31:41;19.90;99.90
11838;DHT22;5978;51.020;6.764;2023-06-01T09:34:19;20.20;99.90
11838;DHT22;5978;51.020;6.764;2023-06-01T09:36:46;20.50;99.90
11838;DHT22;5978;51.020;6.764;2023-06-01T09:39:14;20.80;99.90
11838;DHT22;5978;51.020;6.764;2023-06-01T09:41:58;21.00;99.90
11838;DHT22;5978;51.020;6.764;2023-06-01T09:47:28;21.20;99.90
11838;DHT22;5978;51.020;6.764;2023-06-01T09:49:54;20.90;99.90
11838;DHT22;5978;51.020;6.764;2023-06-01T09:52:23;21.00;99.90
11838;DHT22;5978;51.020;6.764;2023-06-01T09:54:50;21.30;99.90
11838;DHT22;5978;51.020;6.764;2023-06-01T09:57:22;21.70;99.90
11838;DHT22;5978;51.020;6.764;2023-06-01T09:59:48;21.80;99.90
11838;DHT22;5978;51.020;6.764;2023-06-01T10:02:18;21.70;99.90
11838;DHT22;5978;51.020;6.764;2023-06-01T10:04:53;21.90;99.90
11838;DHT22;5978;51.020;6.764;2023-06-01T10:07:22;21.90;99.90
11838;DHT22;5978;51.020;6.764;2023-06-01T10:09:54;22.00;99.90
11838;DHT22;5978;51.020;6.764;2023-06-01T10:12:20;22.00;99.90
11838;DHT22;5978;51.020;6.764;2023-06-01T10:14:46;22.00;99.90
11838;DHT22;5978;51.020;6.764;2023-06-01T10:17:13;22.50;99.90
11838;DHT22;5978;51.020;6.764;2023-06-01T10:19:41;22.90;99.90
11838;DHT22;5978;51.020;6.764;2023-06-01T10:22:08;22.80;96.30
11838;DHT22;5978;51.020;6.764;2023-06-01T10:24:35;22.70;96.90
11838;DHT22;5978;51.020;6.764;2023-06-01T10:27:11;22.50;97.20
11838;DHT22;5978;51.020;6.764;2023-06-01T10:29:39;22.80;99.80
11838;DHT22;5978;51.020;6.764;2023-06-01T10:32:42;22.90;96.80
11838;DHT22;5978;51.020;6.764;2023-06-01T10:35:09;22.90;96.80
11838;DHT22;5978;51.020;6.764;2023-06-01T10:37:38;22.90;93.70
11838;DHT22;5978;51.020;6.764;2023-06-01T10:42:42;23.30;95.10
11838;DHT22;5978;51.020;6.764;2023-06-01T10:45:35;23.20;93.50
11838;DHT22;5978;51.020;6.764;2023-06-01T10:47:54;23.20;93.00
11838;DHT22;5978;51.020;6.764;2023-06-01T10:50:20;23.40;94.20
11838;DHT22;5978;51.020;6.764;2023-06-01T10:52:46;23.10;92.10
11838;DHT22;5978;51.020;6.764;2023-06-01T10:57:41;23.30;90.40
11838;DHT22;5978;51.020;6.764;2023-06-01T11:00:24;23.70;92.40
11838;DHT22;5978;51.020;6.764;2023-06-01T11:05:36;23.50;82.40
11838;DHT22;5978;51.020;6.764;2023-06-01T11:11:01;24.00;78.00
11838;DHT22;5978;51.020;6.764;2023-06-01T11:13:33;24.60;79.30
11838;DHT22;5978;51.020;6.764;2023-06-01T11:18:49;25.50;77.00
11838;DHT22;5978;51.020;6.764;2023-06-01T11:21:21;25.90;69.60
11838;DHT22;5978;51.020;6.764;2023-06-01T11:23:49;26.40;72.30
11838;DHT22;5978;51.020;6.764;2023-06-01T11:26:16;26.90;71.80
11838;DHT22;5978;51.020;6.764;2023-06-01T11:28:42;26.90;68.50
11838;DHT22;5978;51.020;6.764;2023-06-01T11:31:10;26.70;66.40
11838;DHT22;5978;51.020;6.764;2023-06-01T11:33:39;27.20;68.20
11838;DHT22;5978;51.020;6.764;2023-06-01T11:36:07;27.30;66.10
11838;DHT22;5978;51.020;6.764;2023-06-01T11:38:38;27.00;64.30
11838;DHT22;5978;51.020;6.764;2023-06-01T11:41:05;27.10;65.30
11838;DHT22;5978;51.020;6.764;2023-06-01T11:43:32;27.30;65.70
11838;DHT22;5978;51.020;6.764;2023-06-01T11:46:08;27.50;65.10
11838;DHT22;5978;51.020;6.764;2023-06-01T11:48:35;28.50;64.10
11838;DHT22;5978;51.020;6.764;2023-06-01T11:51:02;28.60;62.60
11838;DHT22;5978;51.020;6.764;2023-06-01T11:53:29;28.10;60.60
11838;DHT22;5978;51.020;6.764;2023-06-01T11:55:57;28.60;61.10
11838;DHT22;5978;51.020;6.764;2023-06-01T11:58:27;29.20;60.50
11838;DHT22;5978;51.020;6.764;2023-06-01T12:00:53;29.70;58.70
11838;DHT22;5978;51.020;6.764;2023-06-01T12:03:19;29.50;59.20
11838;DHT22;5978;51.020;6.764;2023-06-01T12:05:45;29.80;59.50
11838;DHT22;5978;51.020;6.764;2023-06-01T12:08:17;30.30;56.10
11838;DHT22;5978;51.020;6.764;2023-06-01T12:10:45;29.20;55.60
11838;DHT22;5978;51.020;6.764;2023-06-01T12:13:17;29.40;57.00
11838;DHT22;5978;51.020;6.764;2023-06-01T12:15:44;30.60;56.90
11838;DHT22;5978;51.020;6.764;2023-06-01T12:18:10;30.70;54.90
11838;DHT22;5978;51.020;6.764;2023-06-01T12:20:38;30.20;55.10
11838;DHT22;5978;51.020;6.764;2023-06-01T12:23:17;30.50;55.00
11838;DHT22;5978;51.020;6.764;2023-06-01T12:25:57;30.40;54.10
11838;DHT22;5978;51.020;6.764;2023-06-01T12:28:25;31.50;54.30
11838;DHT22;5978;51.020;6.764;2023-06-01T12:31:10;32.20;53.20
11838;DHT22;5978;51.020;6.764;2023-06-01T12:33:38;32.00;52.30
11838;DHT22;5978;51.020;6.764;2023-06-01T12:36:05;32.10;52.90
11838;DHT22;5978;51.020;6.764;2023-06-01T12:38:50;32.30;52.20
11838;DHT22;5978;51.020;6.764;2023-06-01T12:41:17;32.10;52.00
11838;DHT22;5978;51.020;6.764;2023-06-01T12:43:47;31.40;51.90
11838;DHT22;5978;51.020;6.764;2023-06-01T12:46:24;31.70;52.50
11838;DHT22;5978;51.020;6.764;2023-06-01T12:48:52;33.10;52.80
11838;DHT22;5978;51.020;6.764;2023-06-01T12:51:19;33.50;51.60
11838;DHT22;5978;51.020;6.764;2023-06-01T12:53:45;33.90;49.50
11838;DHT22;5978;51.020;6.764;2023-06-01T12:56:11;34.30;49.20
11838;DHT22;5978;51.020;6.764;2023-06-01T12:58:49;34.50;49.40
11838;DHT22;5978;51.020;6.764;2023-06-01T13:01:15;34.80;48.40
11838;DHT22;5978;51.020;6.764;2023-06-01T13:03:41;34.40;47.40
11838;DHT22;5978;51.020;6.764;2023-06-01T13:06:06;33.40;47.00
11838;DHT22;5978;51.020;6.764;2023-06-01T13:08:32;33.60;46.70
11838;DHT22;5978;51.020;6.764;2023-06-01T13:10:58;33.20;47.30
11838;DHT22;5978;51.020;6.764;2023-06-01T13:13:24;33.80;47.60
11838;DHT22;5978;51.020;6.764;2023-06-01T13:15:50;34.30;47.60
11838;DHT22;5978;51.020;6.764;2023-06-01T13:18:15;33.80;47.10
11838;DHT22;5978;51.020;6.764;2023-06-01T13:20:41;33.80;46.80
11838;DHT22;5978;51.020;6.764;2023-06-01T13:23:07;33.40;46.30
11838;DHT22;5978;51.020;6.764;2023-06-01T13:25:35;33.70;46.50
11838;DHT22;5978;51.020;6.764;2023-06-01T13:28:01;34.30;46.00
11838;DHT22;5978;51.020;6.764;2023-06-01T13:30:27;34.80;46.40
11838;DHT22;5978;51.020;6.764;2023-06-01T13:32:57;35.30;45.00
11838;DHT22;5978;51.020;6.764;2023-06-01T13:35:23;35.60;45.20
11838;DHT22;5978;51.020;6.764;2023-06-01T13:37:48;35.30;44.10
11838;DHT22;5978;51.020;6.764;2023-06-01T13:40:15;35.50;43.60
11838;DHT22;5978;51.020;6.764;2023-06-01T13:42:46;34.70;42.90
11838;DHT22;5978;51.020;6.764;2023-06-01T13:45:12;34.40;44.80
11838;DHT22;5978;51.020;6.764;2023-06-01T13:47:38;35.00;43.80
11838;DHT22;5978;51.020;6.764;2023-06-01T13:50:04;35.70;43.90
11838;DHT22;5978;51.020;6.764;2023-06-01T13:52:30;35.10;43.00
11838;DHT22;5978;51.020;6.764;2023-06-01T13:54:55;34.60;44.60
11838;DHT22;5978;51.020;6.764;2023-06-01T13:57:21;35.30;45.10
11838;DHT22;5978;51.020;6.764;2023-06-01T13:59:47;35.30;44.30
11838;DHT22;5978;51.020;6.764;2023-06-01T14:02:13;36.10;44.80
11838;DHT22;5978;51.020;6.764;2023-06-01T14:04:39;36.60;44.20
11838;DHT22;5978;51.020;6.764;2023-06-01T14:07:05;36.80;43.20
11838;DHT22;5978;51.020;6.764;2023-06-01T14:09:30;37.10;42.30
11838;DHT22;5978;51.020;6.764;2023-06-01T14:11:56;37.10;42.80
11838;DHT22;5978;51.020;6.764;2023-06-01T14:14:53;37.00;44.30
11838;DHT22;5978;51.020;6.764;2023-06-01T14:17:18;37.40;44.20
11838;DHT22;5978;51.020;6.764;2023-06-01T14:19:44;38.40;43.80
11838;DHT22;5978;51.020;6.764;2023-06-01T14:22:10;38.10;42.90
11838;DHT22;5978;51.020;6.764;2023-06-01T14:24:35;36.80;43.20
11838;DHT22;5978;51.020;6.764;2023-06-01T14:27:01;36.00;43.30
11838;DHT22;5978;51.020;6.764;2023-06-01T14:29:27;35.70;43.50
11838;DHT22;5978;51.020;6.764;2023-06-01T14:31:53;35.20;43.80
11838;DHT22;5978;51.020;6.764;2023-06-01T14:34:18;35.00;45.00
11838;DHT22;5978;51.020;6.764;2023-06-01T14:36:44;35.60;43.80
11838;DHT22;5978;51.020;6.764;2023-06-01T14:39:09;36.10;44.20
11838;DHT22;5978;51.020;6.764;2023-06-01T14:41:41;36.30;43.40
11838;DHT22;5978;51.020;6.764;2023-06-01T14:44:10;35.80;43.40
11838;DHT22;5978;51.020;6.764;2023-06-01T14:46:35;36.30;43.90
11838;DHT22;5978;51.020;6.764;2023-06-01T14:49:01;35.70;43.30
11838;DHT22;5978;51.020;6.764;2023-06-01T14:51:30;35.20;43.10
11838;DHT22;5978;51.020;6.764;2023-06-01T14:53:57;35.60;44.00
11838;DHT22;5978;51.020;6.764;2023-06-01T14:56:23;35.20;44.00
11838;DHT22;5978;51.020;6.764;2023-06-01T14:58:48;34.80;43.90
11838;DHT22;5978;51.020;6.764;2023-06-01T15:01:14;34.60;43.70
11838;DHT22;5978;51.020;6.764;2023-06-01T15:03:40;34.80;44.60
11838;DHT22;5978;51.020;6.764;2023-06-01T15:06:06;35.30;43.60
11838;DHT22;5978;51.020;6.764;2023-06-01T15:08:32;35.40;43.50
11838;DHT22;5978;51.020;6.764;2023-06-01T15:10:57;35.10;44.30
11838;DHT22;5978;51.020;6.764;2023-06-01T15:13:23;34.80;44.10
11838;DHT22;5978;51.020;6.764;2023-06-01T15:15:48;34.20;43.70
11838;DHT22;5978;51.020;6.764;2023-06-01T15:18:14;33.60;44.20
11838;DHT22;5978;51.020;6.764;2023-06-01T15:20:40;34.30;44.80
11838;DHT22;5978;51.020;6.764;2023-06-01T15:23:06;35.10;44.00
11838;DHT22;5978;51.020;6.764;2023-06-01T15:25:31;34.50;43.60
11838;DHT22;5978;51.020;6.764;2023-06-01T15:27:57;34.50;44.70
11838;DHT22;5978;51.020;6.764;2023-06-01T15:30:22;34.30;44.70
11838;DHT22;5978;51.020;6.764;2023-06-01T15:32:48;34.90;44.40
11838;DHT22;5978;51.020;6.764;2023-06-01T15:35:13;34.40;44.40
11838;DHT22;5978;51.020;6.764;2023-06-01T15:37:39;35.00;45.00
11838;DHT22;5978;51.020;6.764;2023-06-01T15:40:13;34.20;43.70
11838;DHT22;5978;51.020;6.764;2023-06-01T15:42:38;31.90;44.40
11838;DHT22;5978;51.020;6.764;2023-06-01T15:45:06;29.60;46.90
11838;DHT22;5978;51.020;6.764;2023-06-01T15:47:32;28.60;49.30
11838;DHT22;5978;51.020;6.764;2023-06-01T15:49:58;28.10;50.80
11838;DHT22;5978;51.020;6.764;2023-06-01T15:52:24;27.40;51.00
11838;DHT22;5978;51.020;6.764;2023-06-01T15:54:49;27.30;51.40
11838;DHT22;5978;51.020;6.764;2023-06-01T15:57:15;26.90;51.70
11838;DHT22;5978;51.020;6.764;2023-06-01T15:59:41;26.70;52.60
11838;DHT22;5978;51.020;6.764;2023-06-01T16:02:06;26.50;53.40
11838;DHT22;5978;51.020;6.764;2023-06-01T16:04:32;26.30;54.10
11838;DHT22;5978;51.020;6.764;2023-06-01T16:06:57;26.10;54.90
11838;DHT22;5978;51.020;6.764;2023-06-01T16:09:23;25.90;55.40
11838;DHT22;5978;51.020;6.764;2023-06-01T16:11:49;26.10;55.40
11838;DHT22;5978;51.020;6.764;2023-06-01T16:14:15;25.90;55.20